createdAt,value
2019-05-18T00:00:10.077Z,100462.65
2019-05-18T00:02:41.035Z,100466.59
2019-05-18T00:05:10.611Z,100466.16
2019-05-18T00:07:39.951Z,100464.38
2019-05-18T00:10:09.572Z,100465.69
2019-05-18T00:12:39.003Z,100465.27
2019-05-18T00:15:10.490Z,100463.08
2019-05-18T00:17:39.833Z,100463.50
2019-05-18T00:20:09.618Z,100465.65
2019-05-18T00:22:38.970Z,100468.70
2019-05-18T00:25:08.574Z,100473.48
2019-05-18T00:27:37.991Z,100469.99
2019-05-18T00:30:10.793Z,100475.64
2019-05-18T00:32:40.128Z,100475.62
2019-05-18T00:35:09.973Z,100469.50
2019-05-18T00:37:39.377Z,100468.61
2019-05-18T00:40:08.846Z,100462.48
2019-05-18T00:42:38.213Z,100465.55
2019-05-18T00:45:10.456Z,100462.90
2019-05-18T00:47:41.703Z,100466.38
2019-05-18T00:50:11.356Z,100458.97
2019-05-18T00:52:41.025Z,100461.56
2019-05-18T00:55:10.852Z,100466.34
2019-05-18T00:57:40.190Z,100462.41
2019-05-18T01:00:10.643Z,100459.34
2019-05-18T01:02:40.041Z,100452.80
2019-05-18T01:05:09.507Z,100449.31
2019-05-18T01:07:38.857Z,100454.95
2019-05-18T01:10:09.231Z,100458.43
2019-05-18T01:12:38.570Z,100451.03
2019-05-18T01:15:08.872Z,100449.27
2019-05-18T01:17:38.277Z,100449.22
2019-05-18T01:20:08.046Z,100444.44
2019-05-18T01:22:37.645Z,100447.02
2019-05-18T01:25:07.911Z,100441.77
2019-05-18T01:27:37.285Z,100442.62
2019-05-18T01:30:08.114Z,100443.03
2019-05-18T01:32:38.428Z,100442.17
2019-05-18T01:35:08.296Z,100433.42
2019-05-18T01:37:37.967Z,100432.55
2019-05-18T01:40:07.743Z,100436.02
2019-05-18T01:42:37.127Z,100431.66
2019-05-18T01:45:16.525Z,100434.27
2019-05-18T01:47:39.466Z,100441.25
2019-05-18T01:50:09.318Z,100437.77
2019-05-18T01:52:38.646Z,100442.12
2019-05-18T01:55:09.822Z,100439.05
2019-05-18T01:57:39.150Z,100441.25
2019-05-18T02:00:10.325Z,100443.42
2019-05-18T02:02:39.648Z,100437.78
2019-05-18T02:05:10.337Z,100435.63
2019-05-18T02:07:39.666Z,100443.03
2019-05-18T02:10:09.444Z,100446.55
2019-05-18T02:12:38.780Z,100449.62
2019-05-18T02:15:08.989Z,100439.61
2019-05-18T02:17:38.324Z,100440.97
2019-05-18T02:20:08.364Z,100436.59
2019-05-18T02:22:37.689Z,100434.86
2019-05-18T02:25:07.862Z,100434.45
2019-05-18T02:27:37.435Z,100441.45
2019-05-18T02:30:07.911Z,100438.84
2019-05-18T02:32:37.254Z,100441.45
2019-05-18T02:35:07.019Z,100437.11
2019-05-18T02:37:36.345Z,100437.98
2019-05-18T02:40:07.135Z,100434.05
2019-05-18T02:42:36.530Z,100425.79
2019-05-18T02:45:07.619Z,100426.69
2019-05-18T02:47:37.074Z,100426.66
2019-05-18T02:50:08.214Z,100428.41
2019-05-18T02:52:38.532Z,100419.69
2019-05-18T02:55:08.802Z,100418.36
2019-05-18T02:57:38.178Z,100413.56
2019-05-18T03:00:10.739Z,100415.75
2019-05-18T03:02:40.077Z,100412.67
2019-05-18T03:05:09.858Z,100413.56
2019-05-18T03:07:39.173Z,100417.47
2019-05-18T03:10:08.753Z,100412.66
2019-05-18T03:12:38.072Z,100419.20
2019-05-18T03:15:08.727Z,100420.05
2019-05-18T03:17:38.051Z,100410.88
2019-05-18T03:20:07.828Z,100416.11
2019-05-18T03:22:37.248Z,100417.81
2019-05-18T03:25:09.776Z,100424.33
2019-05-18T03:27:39.109Z,100425.19
2019-05-18T03:30:08.991Z,100427.39
2019-05-18T03:32:38.319Z,100426.08
2019-05-18T03:35:07.831Z,100417.80
2019-05-18T03:37:37.159Z,100426.09
2019-05-18T03:40:06.645Z,100420.39
2019-05-18T03:42:35.973Z,100428.22
2019-05-18T03:45:05.764Z,100422.98
2019-05-18T03:47:35.091Z,100425.62
2019-05-18T03:50:09.752Z,100428.22
2019-05-18T03:52:39.076Z,100423.43
2019-05-18T03:55:08.651Z,100424.27
2019-05-18T03:57:37.984Z,100431.25
2019-05-18T04:00:08.065Z,100429.05
2019-05-18T04:02:37.678Z,100428.17
2019-05-18T04:05:07.847Z,100432.09
2019-05-18T04:07:37.179Z,100426.87
2019-05-18T04:10:09.655Z,100430.77
2019-05-18T04:12:38.996Z,100428.16
2019-05-18T04:15:09.838Z,100424.23
2019-05-18T04:17:39.177Z,100428.13
2019-05-18T04:20:08.943Z,100421.16
2019-05-18T04:22:38.258Z,100435.10
2019-05-18T04:25:07.856Z,100426.80
2019-05-18T04:27:37.183Z,100431.59
2019-05-18T04:30:09.826Z,100425.92
2019-05-18T04:32:39.163Z,100426.36
2019-05-18T04:35:08.769Z,100431.62
2019-05-18T04:37:38.119Z,100433.36
2019-05-18T04:40:08.170Z,100432.08
2019-05-18T04:42:37.497Z,100431.66
2019-05-18T04:45:09.320Z,100426.45
2019-05-18T04:47:38.669Z,100422.55
2019-05-18T04:50:09.539Z,100419.52
2019-05-18T04:52:38.878Z,100422.15
2019-05-18T04:55:08.282Z,100431.36
2019-05-18T04:57:37.620Z,100436.19
2019-05-18T05:00:08.481Z,100431.85
2019-05-18T05:02:37.878Z,100421.41
2019-05-18T05:05:07.835Z,100427.56
2019-05-18T05:07:37.162Z,100428.02
2019-05-18T05:10:07.158Z,100431.54
2019-05-18T05:12:36.465Z,100433.32
2019-05-18T05:15:05.869Z,100434.65
2019-05-18T05:17:36.187Z,100432.47
2019-05-18T05:20:18.631Z,100434.25
2019-05-18T05:22:37.709Z,100437.75
2019-05-18T05:25:07.185Z,100439.94
2019-05-18T05:27:36.537Z,100441.23
2019-05-18T05:30:09.169Z,100435.56
2019-05-18T05:32:38.511Z,100430.75
2019-05-18T05:35:08.585Z,100435.55
2019-05-18T05:37:37.923Z,100436.84
2019-05-18T05:40:07.705Z,100430.73
2019-05-18T05:42:37.045Z,100428.97
2019-05-18T05:45:09.729Z,100428.94
2019-05-18T05:47:39.058Z,100429.36
2019-05-18T05:50:09.931Z,100431.98
2019-05-18T05:52:39.310Z,100432.81
2019-05-18T05:55:09.473Z,100438.92
2019-05-18T05:57:38.801Z,100439.77
2019-05-18T06:00:09.475Z,100444.13
2019-05-18T06:02:38.812Z,100444.97
2019-05-18T06:05:08.385Z,100448.45
2019-05-18T06:07:37.733Z,100452.36
2019-05-18T06:10:08.469Z,100451.03
2019-05-18T06:12:37.822Z,100461.06
2019-05-18T06:15:08.972Z,100453.63
2019-05-18T06:17:39.506Z,100453.58
2019-05-18T06:20:09.683Z,100450.94
2019-05-18T06:22:39.321Z,100455.28
2019-05-18T06:25:08.992Z,100449.97
2019-05-18T06:27:38.341Z,100456.09
2019-05-18T06:30:09.151Z,100453.43
2019-05-18T06:32:38.651Z,100456.02
2019-05-18T06:35:08.831Z,100455.10
2019-05-18T06:37:38.167Z,100459.44
2019-05-18T06:40:07.948Z,100462.87
2019-05-18T06:42:37.355Z,100467.65
2019-05-18T06:45:07.836Z,100465.84
2019-05-18T06:47:37.185Z,100468.03
2019-05-18T06:50:12.093Z,100468.44
2019-05-18T06:52:39.468Z,100461.85
2019-05-18T06:55:09.340Z,100468.84
2019-05-18T06:57:39.211Z,100466.64
2019-05-18T07:00:10.835Z,100470.14
2019-05-18T07:02:40.170Z,100467.48
2019-05-18T07:05:09.852Z,100467.02
2019-05-18T07:07:39.185Z,100471.81
2019-05-18T07:10:09.377Z,100481.41
2019-05-18T07:12:38.699Z,100481.41
2019-05-18T07:15:08.880Z,100477.01
2019-05-18T07:17:39.184Z,100483.12
2019-05-18T07:20:09.763Z,100473.92
2019-05-18T07:22:39.100Z,100475.20
2019-05-18T07:25:08.779Z,100476.47
2019-05-18T07:27:38.523Z,100476.81
2019-05-18T07:30:08.507Z,100474.58
2019-05-18T07:32:37.984Z,100476.30
2019-05-18T07:35:08.842Z,100477.59
2019-05-18T07:37:38.175Z,100481.06
2019-05-18T07:40:08.313Z,100483.67
2019-05-18T07:42:37.644Z,100481.41
2019-05-18T07:45:09.021Z,100483.09
2019-05-18T07:47:38.384Z,100485.20
2019-05-18T07:50:08.233Z,100496.06
2019-05-18T07:52:37.571Z,100490.67
2019-05-18T07:55:07.195Z,100487.53
2019-05-18T07:57:36.667Z,100500.64
2019-05-18T08:00:07.139Z,100498.75
2019-05-18T08:02:36.639Z,100497.34
2019-05-18T08:05:07.586Z,100498.10
2019-05-18T08:07:36.922Z,100494.08
2019-05-18T08:10:08.196Z,100496.16
2019-05-18T08:12:37.537Z,100495.16
2019-05-18T08:15:09.009Z,100495.91
2019-05-18T08:17:38.352Z,100497.58
2019-05-18T08:20:08.317Z,100494.00
2019-05-18T08:22:37.668Z,100498.73
2019-05-18T08:25:07.860Z,100492.97
2019-05-18T08:27:37.205Z,100492.40
2019-05-18T08:30:09.582Z,100499.37
2019-05-18T08:32:38.949Z,100495.73
2019-05-18T08:35:09.674Z,100498.70
2019-05-18T08:37:39.025Z,100495.53
2019-05-18T08:40:10.097Z,100491.41
2019-05-18T08:42:39.566Z,100490.36
2019-05-18T08:45:10.857Z,100487.03
2019-05-18T08:47:40.603Z,100484.80
2019-05-18T08:50:10.374Z,100483.84
2019-05-18T08:52:39.720Z,100481.44
2019-05-18T08:55:10.043Z,100496.21
2019-05-18T08:57:39.389Z,100500.48
2019-05-18T09:00:09.957Z,100502.51
2019-05-18T09:02:39.300Z,100512.56
2019-05-18T09:05:09.378Z,100516.53
2019-05-18T09:07:38.948Z,100515.87
2019-05-18T09:10:09.008Z,100510.07
2019-05-18T09:12:38.350Z,100501.55
2019-05-18T09:15:08.160Z,100504.89
2019-05-18T09:17:37.491Z,100501.63
2019-05-18T09:20:07.859Z,100503.64
2019-05-18T09:22:37.347Z,100499.50
2019-05-18T09:25:07.878Z,100493.59
2019-05-18T09:27:38.191Z,100499.52
2019-05-18T09:30:08.875Z,100500.26
2019-05-18T09:32:38.474Z,100499.56
2019-05-18T09:35:09.318Z,100505.02
2019-05-18T09:37:38.979Z,100504.14
2019-05-18T09:40:08.846Z,100502.16
2019-05-18T09:42:38.325Z,100510.25
2019-05-18T09:45:08.811Z,100506.47
2019-05-18T09:47:38.162Z,100505.84
2019-05-18T09:50:09.303Z,100507.87
2019-05-18T09:52:46.502Z,100505.31
2019-05-18T09:55:10.191Z,100500.98
2019-05-18T09:57:39.534Z,100506.42
2019-05-18T10:00:10.806Z,100509.40
2019-05-18T10:02:40.422Z,100506.38
2019-05-18T10:05:10.397Z,100508.30
2019-05-18T10:07:40.015Z,100498.34
2019-05-18T10:10:10.623Z,100502.55
2019-05-18T10:12:41.385Z,100500.11
2019-05-18T10:15:10.870Z,100505.16
2019-05-18T10:17:40.276Z,100495.18
2019-05-18T10:20:10.352Z,100503.16
2019-05-18T10:22:53.298Z,100494.08
2019-05-18T10:25:11.596Z,100495.20
2019-05-18T10:27:41.204Z,100488.73
2019-05-18T10:30:10.959Z,100491.75
2019-05-18T10:32:40.295Z,100493.20
2019-05-18T10:35:10.185Z,100488.09
2019-05-18T10:37:39.513Z,100490.95
2019-05-18T10:40:09.935Z,100488.92
2019-05-18T10:42:39.266Z,100483.42
2019-05-18T10:45:08.938Z,100489.78
2019-05-18T10:47:38.340Z,100491.31
2019-05-18T10:50:08.408Z,100489.36
2019-05-18T10:52:37.989Z,100490.69
2019-05-18T10:55:10.325Z,100492.34
2019-05-18T10:57:39.764Z,100487.80
2019-05-18T11:00:11.715Z,100484.03
2019-05-18T11:02:41.142Z,100482.27
2019-05-18T11:05:10.918Z,100482.23
2019-05-18T11:07:40.549Z,100477.55
2019-05-18T11:10:11.057Z,100478.05
2019-05-18T11:12:40.520Z,100481.99
2019-05-18T11:15:12.527Z,100477.61
2019-05-18T11:17:41.853Z,100479.55
2019-05-18T11:20:12.173Z,100468.29
2019-05-18T11:22:41.561Z,100470.41
2019-05-18T11:25:11.086Z,100472.67
2019-05-18T11:27:40.414Z,100472.72
2019-05-18T11:30:12.607Z,100473.84
2019-05-18T11:32:41.926Z,100471.98
2019-05-18T11:35:12.312Z,100470.62
2019-05-18T11:37:41.621Z,100460.50
2019-05-18T11:40:14.351Z,100459.47
2019-05-18T11:42:43.676Z,100462.11
2019-05-18T11:45:15.555Z,100462.91
2019-05-18T11:47:45.252Z,100456.47
2019-05-18T11:50:15.027Z,100458.00
2019-05-18T11:52:44.534Z,100460.00
2019-05-18T11:55:14.400Z,100455.14
2019-05-18T11:57:43.725Z,100455.83
2019-05-18T12:00:14.874Z,100446.66
2019-05-18T12:02:44.192Z,100450.39
2019-05-18T12:05:14.557Z,100452.14
2019-05-18T12:07:43.893Z,100444.27
2019-05-18T12:10:13.460Z,100443.19
2019-05-18T12:12:42.786Z,100447.03
2019-05-18T12:15:12.747Z,100445.31
2019-05-18T12:17:42.090Z,100449.17
2019-05-18T12:20:12.062Z,100439.56
2019-05-18T12:22:41.393Z,100442.27
2019-05-18T12:25:11.048Z,100443.11
2019-05-18T12:27:40.441Z,100445.47
2019-05-18T12:30:11.112Z,100446.82
2019-05-18T12:32:40.437Z,100451.65
2019-05-18T12:35:10.365Z,100448.75
2019-05-18T12:37:39.704Z,100445.97
2019-05-18T12:40:10.116Z,100447.54
2019-05-18T12:42:39.448Z,100446.31
2019-05-18T12:45:09.207Z,100450.83
2019-05-18T12:47:38.674Z,100451.57
2019-05-18T12:50:09.345Z,100446.63
2019-05-18T12:52:38.814Z,100443.17
2019-05-18T12:55:09.022Z,100433.80
2019-05-18T12:57:38.389Z,100432.11
2019-05-18T13:00:10.096Z,100443.16
2019-05-18T13:02:39.438Z,100431.34
2019-05-18T13:05:09.355Z,100441.34
2019-05-18T13:07:38.772Z,100431.16
2019-05-18T13:10:10.672Z,100432.03
2019-05-18T13:12:41.084Z,100427.37
2019-05-18T13:15:12.120Z,100427.81
2019-05-18T13:17:41.457Z,100430.14
2019-05-18T13:20:11.820Z,100429.92
2019-05-18T13:22:41.387Z,100426.36
2019-05-18T13:25:11.553Z,100423.55
2019-05-18T13:27:40.956Z,100429.77
2019-05-18T13:30:12.442Z,100427.63
2019-05-18T13:32:41.900Z,100425.87
2019-05-18T13:35:11.765Z,100417.85
2019-05-18T13:37:41.129Z,100410.39
2019-05-18T13:40:12.213Z,100411.14
2019-05-18T13:42:41.560Z,100407.14
2019-05-18T13:45:11.510Z,100408.38
2019-05-18T13:47:40.859Z,100416.39
2019-05-18T13:50:11.525Z,100416.47
2019-05-18T13:52:40.871Z,100405.04
2019-05-18T13:55:10.556Z,100398.83
2019-05-18T13:57:39.880Z,100398.98
2019-05-18T14:00:09.820Z,100400.58
2019-05-18T14:02:39.179Z,100407.94
2019-05-18T14:05:08.624Z,100399.53
2019-05-18T14:07:37.955Z,100391.92
2019-05-18T14:10:08.223Z,100399.31
2019-05-18T14:12:37.590Z,100391.38
2019-05-18T14:15:07.425Z,100394.77
2019-05-18T14:17:36.747Z,100388.17
2019-05-18T14:20:06.710Z,100387.12
2019-05-18T14:22:36.036Z,100392.79
2019-05-18T14:25:18.614Z,100389.99
2019-05-18T14:27:38.502Z,100394.71
2019-05-18T14:30:08.746Z,100392.28
2019-05-18T14:32:38.039Z,100394.18
2019-05-18T14:35:08.474Z,100397.67
2019-05-18T14:37:38.084Z,100402.17
2019-05-18T14:40:08.039Z,100403.81
2019-05-18T14:42:37.430Z,100402.72
2019-05-18T14:45:08.957Z,100401.44
2019-05-18T14:47:38.269Z,100400.81
2019-05-18T14:50:10.415Z,100404.67
2019-05-18T14:52:39.742Z,100404.13
2019-05-18T14:55:10.320Z,100399.37
2019-05-18T14:57:39.643Z,100400.83
2019-05-18T15:00:09.711Z,100403.49
2019-05-18T15:02:39.042Z,100395.75
2019-05-18T15:05:09.008Z,100398.00
2019-05-18T15:07:38.338Z,100390.41
2019-05-18T15:10:08.219Z,100397.30
2019-05-18T15:12:37.549Z,100390.22
2019-05-18T15:15:08.016Z,100389.30
2019-05-18T15:17:37.490Z,100390.90
2019-05-18T15:20:08.080Z,100391.43
2019-05-18T15:22:37.396Z,100391.84
2019-05-18T15:25:07.166Z,100387.29
2019-05-18T15:27:36.487Z,100383.77
2019-05-18T15:30:07.565Z,100385.23
2019-05-18T15:32:36.890Z,100386.72
2019-05-18T15:35:09.733Z,100383.88
2019-05-18T15:37:43.192Z,100391.02
2019-05-18T15:40:11.365Z,100385.75
2019-05-18T15:42:40.806Z,100385.75
2019-05-18T15:45:12.257Z,100376.30
2019-05-18T15:47:41.561Z,100373.19
2019-05-18T15:50:11.629Z,100379.11
2019-05-18T15:52:41.928Z,100376.63
2019-05-18T15:55:11.413Z,100378.92
2019-05-18T15:57:40.742Z,100385.27
2019-05-18T16:00:10.818Z,100378.09
2019-05-18T16:02:40.221Z,100377.97
2019-05-18T16:05:09.827Z,100382.95
2019-05-18T16:07:39.204Z,100384.96
2019-05-18T16:10:09.667Z,100395.77
2019-05-18T16:12:39.289Z,100406.34
2019-05-18T16:15:09.386Z,100415.85
2019-05-18T16:17:40.081Z,100416.09
2019-05-18T16:20:10.464Z,100417.63
2019-05-18T16:22:39.796Z,100417.14
2019-05-18T16:25:10.562Z,100420.69
2019-05-18T16:27:39.894Z,100425.66
2019-05-18T16:30:10.269Z,100424.51
2019-05-18T16:32:39.601Z,100430.80
2019-05-18T16:35:09.373Z,100430.86
2019-05-18T16:37:38.776Z,100436.89
2019-05-18T16:40:08.728Z,100437.73
2019-05-18T16:42:38.576Z,100449.42
2019-05-18T16:45:10.038Z,100448.88
2019-05-18T16:47:39.361Z,100462.41
2019-05-18T16:50:09.239Z,100471.98
2019-05-18T16:52:38.572Z,100468.72
2019-05-18T16:55:08.941Z,100468.52
2019-05-18T16:57:38.279Z,100459.59
2019-05-18T17:00:15.758Z,100467.33
2019-05-18T17:02:43.651Z,100472.00
2019-05-18T17:05:15.110Z,100470.97
2019-05-18T17:07:44.473Z,100465.40
2019-05-18T17:10:15.547Z,100465.62
2019-05-18T17:12:44.879Z,100465.20
2019-05-18T17:15:14.663Z,100456.89
2019-05-18T17:17:44.001Z,100460.55
2019-05-18T17:20:13.677Z,100453.87
2019-05-18T17:22:43.007Z,100454.95
2019-05-18T17:25:12.493Z,100444.27
2019-05-18T17:27:42.088Z,100437.83
2019-05-18T17:30:11.759Z,100444.58
2019-05-18T17:32:41.092Z,100445.56
2019-05-18T17:35:11.301Z,100447.25
2019-05-18T17:37:40.642Z,100447.03
2019-05-18T17:40:10.240Z,100446.64
2019-05-18T17:42:39.580Z,100447.55
2019-05-18T17:45:09.229Z,100445.74
2019-05-18T17:47:39.536Z,100441.63
2019-05-18T17:50:10.718Z,100443.79
2019-05-18T17:52:40.045Z,100441.56
2019-05-18T17:55:09.915Z,100445.34
2019-05-18T17:57:39.243Z,100447.86
2019-05-18T18:00:09.684Z,100452.96
2019-05-18T18:02:40.115Z,100457.00
2019-05-18T18:05:09.588Z,100455.84
2019-05-18T18:07:39.196Z,100457.37
2019-05-18T18:10:08.860Z,100453.95
2019-05-18T18:12:38.188Z,100455.31
2019-05-18T18:15:08.666Z,100462.01
2019-05-18T18:17:38.336Z,100463.83
2019-05-18T18:20:08.218Z,100457.75
2019-05-18T18:22:37.536Z,100464.91
2019-05-18T18:25:07.383Z,100462.34
2019-05-18T18:27:37.481Z,100453.62
2019-05-18T18:30:11.877Z,100460.31
2019-05-18T18:32:41.525Z,100452.50
2019-05-18T18:35:13.255Z,100454.75
2019-05-18T18:37:42.888Z,100465.91
2019-05-18T18:40:12.476Z,100468.34
2019-05-18T18:42:41.787Z,100470.68
2019-05-18T18:45:11.756Z,100475.75
2019-05-18T18:47:41.195Z,100475.52
2019-05-18T18:50:10.962Z,100482.75
2019-05-18T18:52:40.286Z,100482.92
2019-05-18T18:55:10.200Z,100484.04
2019-05-18T18:57:41.686Z,100488.63
2019-05-18T19:00:11.293Z,100494.67
2019-05-18T19:02:40.670Z,100492.28
2019-05-18T19:05:10.299Z,100496.14
2019-05-18T19:07:39.623Z,100497.70
2019-05-18T19:10:09.702Z,100486.11
2019-05-18T19:12:39.026Z,100497.77
2019-05-18T19:15:09.608Z,100491.80
2019-05-18T19:17:39.180Z,100495.16
2019-05-18T19:20:09.830Z,100494.44
2019-05-18T19:22:39.154Z,100502.55
2019-05-18T19:25:08.831Z,100508.38
2019-05-18T19:27:38.161Z,100503.23
2019-05-18T19:30:09.913Z,100507.27
2019-05-18T19:32:39.159Z,100505.19
2019-05-18T19:35:09.253Z,100503.06
2019-05-18T19:37:38.588Z,100507.10
2019-05-18T19:40:10.438Z,100511.59
2019-05-18T19:42:40.077Z,100513.08
2019-05-18T19:45:10.353Z,100511.31
2019-05-18T19:47:39.696Z,100513.19
2019-05-18T19:50:09.546Z,100508.88
2019-05-18T19:52:38.879Z,100504.06
2019-05-18T19:55:09.064Z,100500.22
2019-05-18T19:57:38.390Z,100501.17
2019-05-18T20:00:09.633Z,100504.80
2019-05-18T20:02:39.047Z,100505.36
2019-05-18T20:05:09.556Z,100507.61
2019-05-18T20:07:39.207Z,100502.84
2019-05-18T20:10:10.207Z,100508.64
2019-05-18T20:12:39.643Z,100502.13
2019-05-18T20:15:09.969Z,100498.27
2019-05-18T20:17:40.449Z,100489.13
2019-05-18T20:20:12.192Z,100493.16
2019-05-18T20:22:41.805Z,100492.40
2019-05-18T20:25:11.387Z,100491.64
2019-05-18T20:27:40.733Z,100488.29
2019-05-18T20:30:10.630Z,100489.31
2019-05-18T20:32:40.360Z,100492.47
2019-05-18T20:35:10.538Z,100492.62
2019-05-18T20:37:39.875Z,100491.89
2019-05-18T20:40:12.057Z,100493.21
2019-05-18T20:42:41.401Z,100486.72
2019-05-18T20:45:11.384Z,100492.54
2019-05-18T20:47:40.724Z,100487.80
2019-05-18T20:50:11.011Z,100493.14
2019-05-18T20:52:40.348Z,100491.04
2019-05-18T20:55:09.924Z,100494.55
2019-05-18T20:57:39.622Z,100494.59
2019-05-18T21:00:09.282Z,100497.32
2019-05-18T21:02:40.592Z,100491.22
2019-05-18T21:05:10.058Z,100494.78
2019-05-18T21:07:39.464Z,100490.45
2019-05-18T21:10:09.281Z,100497.50
2019-05-18T21:12:39.562Z,100500.18
2019-05-18T21:15:09.923Z,100498.86
2019-05-18T21:17:39.267Z,100495.32
2019-05-18T21:20:09.154Z,100493.58
2019-05-18T21:22:38.484Z,100503.64
2019-05-18T21:25:08.299Z,100514.11
2019-05-18T21:27:37.640Z,100521.08
2019-05-18T21:30:07.812Z,100518.80
2019-05-18T21:32:37.505Z,100518.22
2019-05-18T21:35:07.712Z,100517.31
2019-05-18T21:37:37.054Z,100518.59
2019-05-18T21:40:07.156Z,100519.39
2019-05-18T21:42:36.719Z,100523.73
2019-05-18T21:45:09.284Z,100521.13
2019-05-18T21:47:38.626Z,100521.45
2019-05-18T21:50:09.423Z,100518.76
2019-05-18T21:52:41.755Z,100521.81
2019-05-18T21:55:10.010Z,100521.67
2019-05-18T21:57:39.342Z,100522.89
2019-05-18T22:00:10.623Z,100517.56
2019-05-18T22:02:41.580Z,100509.59
2019-05-18T22:05:11.515Z,100514.87
2019-05-18T22:07:40.856Z,100517.49
2019-05-18T22:10:24.836Z,100510.50
2019-05-18T22:12:41.454Z,100519.34
2019-05-18T22:15:10.931Z,100506.64
2019-05-18T22:17:57.230Z,100505.41
2019-05-18T22:20:26.588Z,100502.81
2019-05-18T22:22:56.880Z,100505.45
2019-05-18T22:25:26.510Z,100517.34
2019-05-18T22:27:56.124Z,100525.72
2019-05-18T22:30:25.736Z,100529.59
2019-05-18T22:32:55.155Z,100533.95
2019-05-18T22:35:24.742Z,100536.23
2019-05-18T22:37:54.359Z,100535.28
2019-05-18T22:40:23.703Z,100541.43
2019-05-18T22:42:53.034Z,100537.02
2019-05-18T22:45:22.377Z,100543.11
2019-05-18T22:47:51.717Z,100555.41
2019-05-18T22:50:21.384Z,100551.91
2019-05-18T22:52:50.981Z,100548.85
2019-05-18T22:55:20.317Z,100554.67
2019-05-18T22:57:49.660Z,100558.69
2019-05-18T23:00:19.329Z,100558.23
2019-05-18T23:02:48.671Z,100557.27
2019-05-18T23:05:18.013Z,100550.67
2019-05-18T23:07:47.343Z,100547.07
2019-05-18T23:10:17.925Z,100543.16
2019-05-18T23:12:47.250Z,100536.51
2019-05-18T23:15:16.673Z,100524.25
2019-05-18T23:17:46.003Z,100514.16
2019-05-18T23:20:15.409Z,100509.42
2019-05-18T23:22:44.744Z,100502.00
2019-05-18T23:25:14.222Z,100498.50
2019-05-18T23:27:43.552Z,100490.63
2019-05-18T23:30:13.369Z,100493.30
2019-05-18T23:32:42.700Z,100494.27
2019-05-18T23:35:12.053Z,100498.22
2019-05-18T23:37:41.378Z,100501.73
2019-05-18T23:40:10.907Z,100499.55
2019-05-18T23:42:40.245Z,100498.64
2019-05-18T23:45:10.119Z,100493.05
2019-05-18T23:47:39.526Z,100498.28
2019-05-18T23:50:10.052Z,100500.47
2019-05-18T23:52:39.390Z,100497.05
2019-05-18T23:55:09.655Z,100492.64
2019-05-18T23:57:38.990Z,100487.86
